createdAt,value
2019-05-25T00:01:46.176Z,14.47
2019-05-25T00:04:18.826Z,14.49
2019-05-25T00:06:51.374Z,14.51
2019-05-25T00:09:23.905Z,14.53
2019-05-25T00:11:57.082Z,14.51
2019-05-25T00:14:29.756Z,14.54
2019-05-25T00:17:03.203Z,14.57
2019-05-25T00:19:35.884Z,14.59
2019-05-25T00:22:08.415Z,14.59
2019-05-25T00:24:40.936Z,14.63
2019-05-25T00:27:13.415Z,14.66
2019-05-25T00:29:45.756Z,14.67
2019-05-25T00:32:18.410Z,14.69
2019-05-25T00:34:51.125Z,14.71
2019-05-25T00:37:23.656Z,14.73
2019-05-25T00:39:56.117Z,14.71
2019-05-25T00:42:28.434Z,14.72
2019-05-25T00:45:00.995Z,14.71
2019-05-25T00:47:33.565Z,14.71
2019-05-25T00:50:06.445Z,14.72
2019-05-25T00:52:39.215Z,14.72
2019-05-25T00:55:12.048Z,14.73
2019-05-25T00:57:44.443Z,14.73
2019-05-25T01:00:17.010Z,14.78
2019-05-25T01:02:49.524Z,14.81
2019-05-25T01:05:22.110Z,14.84
2019-05-25T01:07:54.626Z,14.84
2019-05-25T01:10:28.535Z,14.85
2019-05-25T01:13:01.457Z,14.84
2019-05-25T01:15:34.056Z,14.85
2019-05-25T01:18:06.665Z,14.84
2019-05-25T01:20:40.096Z,14.84
2019-05-25T01:23:12.870Z,14.86
2019-05-25T01:25:45.377Z,14.87
2019-05-25T01:28:17.849Z,14.90
2019-05-25T01:30:50.571Z,14.90
2019-05-25T01:33:23.225Z,14.87
2019-05-25T01:35:55.635Z,14.87
2019-05-25T01:38:28.075Z,14.86
2019-05-25T01:41:00.595Z,14.85
2019-05-25T01:43:33.343Z,14.84
2019-05-25T01:46:05.886Z,14.84
2019-05-25T01:48:38.447Z,14.83
2019-05-25T01:51:10.967Z,14.83
2019-05-25T01:53:43.605Z,14.81
2019-05-25T01:56:16.070Z,14.81
2019-05-25T01:58:48.675Z,14.80
2019-05-25T02:01:21.370Z,14.79
2019-05-25T02:03:53.660Z,14.79
2019-05-25T02:06:26.525Z,14.76
2019-05-25T02:08:59.173Z,14.76
2019-05-25T02:11:31.615Z,14.75
2019-05-25T02:14:04.296Z,14.74
2019-05-25T02:16:36.795Z,14.73
2019-05-25T02:19:09.497Z,14.72
2019-05-25T02:21:42.076Z,14.72
2019-05-25T02:24:14.765Z,14.71
2019-05-25T02:26:47.266Z,14.67
2019-05-25T02:29:19.876Z,14.64
2019-05-25T02:31:52.607Z,14.60
2019-05-25T02:34:25.355Z,14.54
2019-05-25T02:36:57.865Z,14.46
2019-05-25T02:39:30.465Z,14.42
2019-05-25T02:42:03.038Z,14.36
2019-05-25T02:44:35.677Z,14.30
2019-05-25T02:47:08.346Z,14.21
2019-05-25T02:49:42.523Z,14.17
2019-05-25T02:52:15.215Z,14.14
2019-05-25T02:54:47.988Z,14.06
2019-05-25T02:57:20.637Z,13.97
2019-05-25T02:59:53.605Z,13.89
2019-05-25T03:02:28.354Z,13.83
2019-05-25T03:05:00.787Z,13.73
2019-05-25T03:07:33.728Z,13.67
2019-05-25T03:10:07.337Z,13.63
2019-05-25T03:12:40.909Z,13.57
2019-05-25T03:15:14.228Z,13.53
2019-05-25T03:17:46.946Z,13.51
2019-05-25T03:20:19.686Z,13.46
2019-05-25T03:22:52.359Z,13.39
2019-05-25T03:25:25.155Z,13.37
2019-05-25T03:27:58.565Z,13.31
2019-05-25T03:30:35.767Z,13.31
2019-05-25T03:33:08.515Z,13.30
2019-05-25T03:35:41.476Z,13.30
2019-05-25T03:38:14.147Z,13.33
2019-05-25T03:40:46.846Z,13.39
2019-05-25T03:43:19.436Z,13.42
2019-05-25T03:45:52.766Z,13.44
2019-05-25T03:48:25.425Z,13.52
2019-05-25T03:50:59.397Z,13.60
2019-05-25T03:53:33.283Z,13.67
2019-05-25T03:56:06.586Z,13.71
2019-05-25T03:58:39.466Z,13.80
2019-05-25T04:01:12.565Z,13.86
2019-05-25T04:03:45.413Z,13.90
2019-05-25T04:06:17.935Z,13.97
2019-05-25T04:08:50.868Z,14.01
2019-05-25T04:11:23.405Z,14.06
2019-05-25T04:13:56.814Z,14.12
2019-05-25T04:16:29.646Z,14.19
2019-05-25T04:19:04.006Z,14.20
2019-05-25T04:21:36.719Z,14.20
2019-05-25T04:24:12.497Z,14.18
2019-05-25T04:26:45.318Z,14.18
2019-05-25T04:29:18.158Z,14.22
2019-05-25T04:31:50.936Z,14.31
2019-05-25T04:34:24.046Z,14.35
2019-05-25T04:36:56.856Z,14.42
2019-05-25T04:39:29.379Z,14.48
2019-05-25T04:42:02.046Z,14.55
2019-05-25T04:44:37.118Z,14.63
2019-05-25T04:47:24.352Z,14.72
2019-05-25T04:49:44.686Z,14.81
2019-05-25T04:52:19.975Z,14.92
2019-05-25T04:54:54.058Z,15.03
2019-05-25T04:57:26.895Z,15.15
2019-05-25T04:59:59.435Z,15.21
2019-05-25T05:02:32.126Z,15.33
2019-05-25T05:05:05.096Z,15.46
2019-05-25T05:07:37.727Z,15.56
2019-05-25T05:10:11.216Z,15.65
2019-05-25T05:12:43.996Z,15.74
2019-05-25T05:15:16.583Z,15.87
2019-05-25T05:17:49.385Z,16.00
2019-05-25T05:20:22.037Z,16.13
2019-05-25T05:22:54.655Z,16.22
2019-05-25T05:25:30.235Z,16.35
2019-05-25T05:28:03.005Z,16.50
2019-05-25T05:30:37.100Z,16.64
2019-05-25T05:33:09.737Z,16.70
2019-05-25T05:35:43.158Z,16.75
2019-05-25T05:38:16.556Z,16.92
2019-05-25T05:40:49.635Z,17.03
2019-05-25T05:43:23.425Z,17.10
2019-05-25T05:45:58.215Z,17.18
2019-05-25T05:48:33.482Z,17.34
2019-05-25T05:51:10.355Z,17.44
2019-05-25T05:53:44.360Z,17.46
2019-05-25T05:56:18.195Z,17.52
2019-05-25T05:58:51.625Z,17.69
2019-05-25T06:01:24.438Z,17.93
2019-05-25T06:03:57.278Z,18.02
2019-05-25T06:06:30.126Z,17.99
2019-05-25T06:09:04.333Z,18.16
2019-05-25T06:11:37.290Z,18.30
2019-05-25T06:14:10.196Z,18.51
2019-05-25T06:16:42.915Z,18.68
2019-05-25T06:19:15.585Z,18.74
2019-05-25T06:21:48.167Z,18.95
2019-05-25T06:24:20.936Z,19.13
2019-05-25T06:26:54.015Z,19.26
2019-05-25T06:29:26.966Z,19.45
2019-05-25T06:31:59.916Z,19.57
2019-05-25T06:34:32.976Z,19.71
2019-05-25T06:37:06.035Z,19.75
2019-05-25T06:39:40.375Z,19.75
2019-05-25T06:42:13.157Z,19.86
2019-05-25T06:44:45.771Z,20.00
2019-05-25T06:47:18.860Z,20.17
2019-05-25T06:49:51.335Z,20.24
2019-05-25T06:52:24.105Z,20.24
2019-05-25T06:54:57.157Z,20.58
2019-05-25T06:57:42.461Z,20.84
2019-05-25T07:00:05.059Z,20.93
2019-05-25T07:02:38.264Z,20.96
2019-05-25T07:05:11.236Z,21.00
2019-05-25T07:07:43.995Z,21.11
2019-05-25T07:10:18.135Z,21.32
2019-05-25T07:12:51.184Z,21.42
2019-05-25T07:15:24.124Z,21.62
2019-05-25T07:17:56.755Z,21.59
2019-05-25T07:20:29.356Z,21.61
2019-05-25T07:23:02.489Z,21.62
2019-05-25T07:25:35.105Z,21.60
2019-05-25T07:28:08.407Z,21.78
2019-05-25T07:30:41.565Z,21.96
2019-05-25T07:33:14.453Z,22.11
2019-05-25T07:35:47.179Z,22.36
2019-05-25T07:38:20.541Z,22.46
2019-05-25T07:40:56.595Z,22.49
2019-05-25T07:43:29.373Z,22.51
2019-05-25T07:46:03.647Z,22.53
2019-05-25T07:48:36.733Z,22.58
2019-05-25T07:51:09.366Z,22.61
2019-05-25T07:53:42.106Z,22.63
2019-05-25T07:56:16.512Z,22.72
2019-05-25T07:58:49.874Z,22.74
2019-05-25T08:01:22.775Z,22.81
2019-05-25T08:03:55.726Z,22.77
2019-05-25T08:06:28.405Z,22.93
2019-05-25T08:09:01.726Z,22.96
2019-05-25T08:11:35.605Z,23.00
2019-05-25T08:14:08.766Z,23.09
2019-05-25T08:16:42.016Z,23.39
2019-05-25T08:19:15.058Z,23.42
2019-05-25T08:21:47.715Z,23.47
2019-05-25T08:24:20.636Z,23.54
2019-05-25T08:26:53.408Z,23.78
2019-05-25T08:29:26.200Z,23.91
2019-05-25T08:31:59.195Z,23.87
2019-05-25T08:34:32.095Z,24.00
2019-05-25T08:37:04.987Z,24.16
2019-05-25T08:39:38.206Z,23.96
2019-05-25T08:42:11.955Z,23.85
2019-05-25T08:44:46.035Z,23.85
2019-05-25T08:47:19.665Z,23.98
2019-05-25T08:49:52.210Z,23.81
2019-05-25T08:52:25.048Z,23.95
2019-05-25T08:54:57.788Z,24.20
2019-05-25T08:57:30.793Z,24.44
2019-05-25T09:00:03.402Z,24.51
2019-05-25T09:02:36.358Z,24.36
2019-05-25T09:05:09.685Z,24.63
2019-05-25T09:07:42.126Z,24.49
2019-05-25T09:10:14.809Z,24.49
2019-05-25T09:12:47.239Z,24.57
2019-05-25T09:15:20.556Z,24.63
2019-05-25T09:17:55.179Z,24.64
2019-05-25T09:20:28.016Z,24.71
2019-05-25T09:23:00.655Z,25.31
2019-05-25T09:25:33.168Z,25.50
2019-05-25T09:28:05.729Z,25.50
2019-05-25T09:30:38.367Z,25.60
2019-05-25T09:33:11.560Z,25.70
2019-05-25T09:35:44.177Z,25.59
2019-05-25T09:38:17.200Z,25.46
2019-05-25T09:40:49.771Z,25.63
2019-05-25T09:43:22.427Z,25.65
2019-05-25T09:45:55.259Z,25.55
2019-05-25T09:48:27.932Z,25.35
2019-05-25T09:51:00.697Z,25.39
2019-05-25T09:53:33.396Z,25.75
2019-05-25T09:56:05.999Z,25.84
2019-05-25T09:58:38.435Z,25.97
2019-05-25T10:01:10.999Z,26.11
2019-05-25T10:03:44.046Z,26.49
2019-05-25T10:06:16.781Z,26.65
2019-05-25T10:08:52.375Z,26.72
2019-05-25T10:11:25.803Z,26.75
2019-05-25T10:13:58.905Z,26.72
2019-05-25T10:16:31.306Z,26.74
2019-05-25T10:19:04.026Z,26.59
2019-05-25T10:21:36.706Z,26.59
2019-05-25T10:24:09.275Z,26.66
2019-05-25T10:26:41.761Z,26.96
2019-05-25T10:29:14.258Z,26.81
2019-05-25T10:31:46.806Z,26.85
2019-05-25T10:34:19.426Z,26.94
2019-05-25T10:36:51.986Z,26.82
2019-05-25T10:39:24.745Z,27.04
2019-05-25T10:41:58.824Z,27.11
2019-05-25T10:44:32.373Z,27.32
2019-05-25T10:47:04.955Z,27.38
2019-05-25T10:49:37.518Z,26.96
2019-05-25T10:52:10.065Z,26.78
2019-05-25T10:54:42.576Z,27.07
2019-05-25T10:57:15.223Z,27.26
2019-05-25T10:59:52.813Z,26.87
2019-05-25T11:02:22.568Z,27.07
2019-05-25T11:04:55.673Z,27.12
2019-05-25T11:07:28.270Z,27.22
2019-05-25T11:10:00.685Z,27.55
2019-05-25T11:12:33.296Z,27.63
2019-05-25T11:15:05.956Z,27.34
2019-05-25T11:17:38.742Z,27.03
2019-05-25T11:20:13.526Z,27.19
2019-05-25T11:22:46.135Z,27.29
2019-05-25T11:25:19.861Z,27.69
2019-05-25T11:27:53.276Z,27.76
2019-05-25T11:30:26.006Z,27.51
2019-05-25T11:32:58.805Z,27.50
2019-05-25T11:35:31.290Z,27.92
2019-05-25T11:38:03.867Z,28.06
2019-05-25T11:40:36.344Z,28.29
2019-05-25T11:43:08.939Z,27.90
2019-05-25T11:45:45.154Z,27.74
2019-05-25T11:48:15.657Z,27.86
2019-05-25T11:50:48.755Z,27.83
2019-05-25T11:53:21.296Z,28.06
2019-05-25T11:55:53.816Z,28.03
2019-05-25T11:58:26.395Z,27.98
2019-05-25T12:00:59.075Z,27.84
2019-05-25T12:03:31.655Z,27.92
2019-05-25T12:06:04.278Z,27.33
2019-05-25T12:08:37.755Z,27.58
2019-05-25T12:11:10.535Z,27.36
2019-05-25T12:13:43.047Z,27.52
2019-05-25T12:16:15.499Z,27.86
2019-05-25T12:18:48.113Z,28.07
2019-05-25T12:21:21.085Z,28.32
2019-05-25T12:23:53.659Z,28.66
2019-05-25T12:26:26.706Z,28.36
2019-05-25T12:28:59.246Z,28.29
2019-05-25T12:31:31.705Z,28.68
2019-05-25T12:34:04.387Z,29.08
2019-05-25T12:36:37.019Z,28.95
2019-05-25T12:39:09.766Z,28.58
2019-05-25T12:41:42.547Z,28.69
2019-05-25T12:44:15.547Z,28.90
2019-05-25T12:46:50.025Z,28.29
2019-05-25T12:49:22.527Z,27.64
2019-05-25T12:51:55.216Z,26.25
2019-05-25T12:54:27.985Z,26.56
2019-05-25T12:57:02.851Z,27.19
2019-05-25T12:59:35.179Z,27.65
2019-05-25T13:02:07.918Z,28.11
2019-05-25T13:04:40.801Z,28.08
2019-05-25T13:07:13.267Z,26.87
2019-05-25T13:09:45.848Z,26.38
2019-05-25T13:12:18.635Z,25.93
2019-05-25T13:14:51.125Z,25.91
2019-05-25T13:17:23.994Z,26.57
2019-05-25T13:19:56.710Z,27.01
2019-05-25T13:22:30.686Z,27.27
2019-05-25T13:25:03.316Z,27.59
2019-05-25T13:27:36.016Z,28.00
2019-05-25T13:30:09.065Z,28.14
2019-05-25T13:32:41.996Z,28.22
2019-05-25T13:35:15.105Z,27.45
2019-05-25T13:37:49.265Z,27.17
2019-05-25T13:40:21.826Z,26.94
2019-05-25T13:42:54.393Z,27.16
2019-05-25T13:45:26.925Z,27.24
2019-05-25T13:47:59.660Z,27.30
2019-05-25T13:50:32.115Z,27.54
2019-05-25T13:53:04.805Z,27.49
2019-05-25T13:55:37.337Z,27.76
2019-05-25T13:58:10.175Z,27.73
2019-05-25T14:00:42.937Z,27.69
2019-05-25T14:03:15.615Z,27.78
2019-05-25T14:05:48.355Z,27.75
2019-05-25T14:08:20.785Z,27.37
2019-05-25T14:10:53.245Z,27.13
2019-05-25T14:13:26.105Z,26.54
2019-05-25T14:16:07.269Z,26.07
2019-05-25T14:18:33.086Z,25.68
2019-05-25T14:21:05.773Z,25.26
2019-05-25T14:23:38.527Z,25.07
2019-05-25T14:26:10.995Z,25.41
2019-05-25T14:28:43.457Z,25.99
2019-05-25T14:31:16.146Z,26.02
2019-05-25T14:33:48.785Z,25.17
2019-05-25T14:36:21.975Z,24.75
2019-05-25T14:38:55.606Z,24.27
2019-05-25T14:41:29.875Z,23.90
2019-05-25T14:44:02.826Z,23.75
2019-05-25T14:46:35.443Z,23.53
2019-05-25T14:49:08.204Z,23.39
2019-05-25T14:51:42.086Z,23.28
2019-05-25T14:54:14.585Z,23.12
2019-05-25T14:56:47.112Z,22.84
2019-05-25T14:59:19.445Z,22.40
2019-05-25T15:02:01.982Z,22.18
2019-05-25T15:04:26.294Z,21.99
2019-05-25T15:06:59.704Z,21.80
2019-05-25T15:09:32.349Z,21.60
2019-05-25T15:12:04.866Z,21.56
2019-05-25T15:14:37.717Z,21.40
2019-05-25T15:17:10.178Z,21.38
2019-05-25T15:19:42.727Z,21.34
2019-05-25T15:22:15.452Z,21.35
2019-05-25T15:24:48.377Z,21.40
2019-05-25T15:27:21.865Z,21.47
2019-05-25T15:29:54.295Z,21.56
2019-05-25T15:32:27.835Z,21.68
2019-05-25T15:35:00.968Z,22.21
2019-05-25T15:37:33.837Z,22.83
2019-05-25T15:40:07.107Z,23.29
2019-05-25T15:42:39.648Z,23.50
2019-05-25T15:45:14.326Z,23.66
2019-05-25T15:47:46.706Z,23.66
2019-05-25T15:50:19.651Z,23.42
2019-05-25T15:52:52.202Z,23.10
2019-05-25T15:55:24.645Z,22.88
2019-05-25T15:57:57.225Z,23.02
2019-05-25T16:00:49.265Z,23.10
2019-05-25T16:03:22.377Z,23.10
2019-05-25T16:05:54.955Z,23.26
2019-05-25T16:08:27.765Z,23.26
2019-05-25T16:11:00.508Z,23.27
2019-05-25T16:13:33.089Z,23.20
2019-05-25T16:16:06.294Z,23.12
2019-05-25T16:18:39.716Z,23.12
2019-05-25T16:21:12.307Z,23.07
2019-05-25T16:23:44.945Z,23.04
2019-05-25T16:26:17.555Z,23.00
2019-05-25T16:28:51.156Z,22.95
2019-05-25T16:31:23.845Z,22.92
2019-05-25T16:33:57.033Z,22.80
2019-05-25T16:36:29.596Z,22.73
2019-05-25T16:39:03.816Z,22.68
2019-05-25T16:41:38.836Z,22.59
2019-05-25T16:44:12.124Z,22.52
2019-05-25T16:46:44.736Z,22.48
2019-05-25T16:49:17.275Z,22.34
2019-05-25T16:51:49.995Z,22.34
2019-05-25T16:54:22.634Z,22.25
2019-05-25T16:56:55.317Z,22.18
2019-05-25T16:59:27.916Z,22.05
2019-05-25T17:02:00.518Z,22.05
2019-05-25T17:04:33.026Z,21.95
2019-05-25T17:07:05.595Z,21.88
2019-05-25T17:09:38.360Z,21.69
2019-05-25T17:12:11.815Z,21.40
2019-05-25T17:14:44.531Z,21.40
2019-05-25T17:17:17.133Z,21.21
2019-05-25T17:19:49.925Z,21.21
2019-05-25T17:22:22.455Z,21.16
2019-05-25T17:24:59.443Z,21.07
2019-05-25T17:27:30.928Z,21.00
2019-05-25T17:30:05.885Z,20.92
2019-05-25T17:32:40.285Z,20.83
2019-05-25T17:35:12.973Z,20.69
2019-05-25T17:37:45.825Z,20.56
2019-05-25T17:40:18.297Z,20.26
2019-05-25T17:42:51.235Z,20.26
2019-05-25T17:45:25.403Z,20.12
2019-05-25T17:48:01.527Z,19.94
2019-05-25T17:50:34.493Z,19.80
2019-05-25T17:53:07.226Z,19.69
2019-05-25T17:55:39.975Z,19.62
2019-05-25T17:58:13.355Z,19.56
2019-05-25T18:00:50.013Z,19.51
2019-05-25T18:03:23.046Z,19.50
2019-05-25T18:05:55.777Z,19.42
2019-05-25T18:08:31.440Z,19.33
2019-05-25T18:11:04.219Z,19.21
2019-05-25T18:13:38.175Z,19.08
2019-05-25T18:16:18.926Z,19.02
2019-05-25T18:18:51.984Z,18.94
2019-05-25T18:21:27.035Z,18.79
2019-05-25T18:24:00.756Z,18.79
2019-05-25T18:26:35.327Z,18.77
2019-05-25T18:29:08.254Z,18.75
2019-05-25T18:31:40.808Z,18.72
2019-05-25T18:34:21.620Z,18.64
2019-05-25T18:36:47.566Z,18.57
2019-05-25T18:39:20.136Z,18.52
2019-05-25T18:41:52.618Z,18.49
2019-05-25T18:44:27.406Z,18.48
2019-05-25T18:47:00.555Z,18.50
2019-05-25T18:49:41.486Z,18.49
2019-05-25T18:52:14.646Z,18.38
2019-05-25T18:54:47.303Z,18.38
2019-05-25T18:57:22.825Z,18.27
2019-05-25T18:59:56.066Z,18.19
2019-05-25T19:02:31.268Z,18.05
2019-05-25T19:05:05.598Z,17.95
2019-05-25T19:07:38.376Z,17.89
2019-05-25T19:10:11.815Z,17.81
2019-05-25T19:12:44.945Z,17.69
2019-05-25T19:15:18.044Z,17.58
2019-05-25T19:17:50.866Z,17.50
2019-05-25T19:20:24.676Z,17.43
2019-05-25T19:23:00.615Z,17.32
2019-05-25T19:25:34.485Z,17.29
2019-05-25T19:28:07.442Z,17.18
2019-05-25T19:30:41.557Z,17.02
2019-05-25T19:33:17.825Z,16.93
2019-05-25T19:35:54.404Z,16.86
2019-05-25T19:38:35.045Z,16.82
2019-05-25T19:41:07.706Z,16.82
2019-05-25T19:43:40.266Z,16.72
2019-05-25T19:46:13.045Z,16.64
2019-05-25T19:48:45.815Z,16.55
2019-05-25T19:51:18.836Z,16.47
2019-05-25T19:53:51.485Z,16.38
2019-05-25T19:56:24.046Z,16.31
2019-05-25T19:58:56.795Z,16.22
2019-05-25T20:01:29.205Z,16.13
2019-05-25T20:04:01.857Z,16.09
2019-05-25T20:06:34.320Z,16.02
2019-05-25T20:09:08.688Z,15.94
2019-05-25T20:11:43.546Z,15.86
2019-05-25T20:14:21.575Z,15.80
2019-05-25T20:16:56.627Z,15.71
2019-05-25T20:19:34.015Z,15.64
2019-05-25T20:22:12.394Z,15.57
2019-05-25T20:24:47.299Z,15.51
2019-05-25T20:27:21.271Z,15.46
2019-05-25T20:29:54.103Z,15.39
2019-05-25T20:34:48.876Z,15.37
2019-05-25T20:37:23.137Z,15.31
2019-05-25T20:39:55.915Z,15.24
2019-05-25T20:42:28.645Z,15.18
2019-05-25T20:45:01.046Z,15.18
2019-05-25T20:47:34.325Z,15.13
2019-05-25T20:50:07.259Z,15.06
2019-05-25T20:52:40.239Z,14.97
2019-05-25T20:55:14.128Z,14.90
2019-05-25T20:57:46.983Z,14.84
2019-05-25T21:00:23.829Z,14.76
2019-05-25T21:03:05.251Z,14.65
2019-05-25T21:05:28.375Z,14.52
2019-05-25T21:08:00.914Z,14.39
2019-05-25T21:10:33.555Z,14.27
2019-05-25T21:13:06.055Z,14.17
2019-05-25T21:15:38.606Z,14.11
2019-05-25T21:18:11.587Z,14.03
2019-05-25T21:20:44.157Z,14.01
2019-05-25T21:23:16.770Z,13.97
2019-05-25T21:25:49.445Z,13.85
2019-05-25T21:28:22.425Z,13.79
2019-05-25T21:30:54.935Z,13.78
2019-05-25T21:33:27.497Z,13.74
2019-05-25T21:36:08.480Z,13.71
2019-05-25T21:38:34.375Z,13.73
2019-05-25T21:41:06.895Z,13.74
2019-05-25T21:43:39.365Z,13.72
2019-05-25T21:46:11.836Z,13.68
2019-05-25T21:48:44.347Z,13.59
2019-05-25T21:51:16.955Z,13.50
2019-05-25T21:53:49.505Z,13.40
2019-05-25T21:56:22.165Z,13.32
2019-05-25T21:58:54.816Z,13.22
2019-05-25T22:01:27.706Z,13.13
2019-05-25T22:04:02.056Z,13.03
2019-05-25T22:06:34.816Z,12.92
2019-05-25T22:09:08.896Z,12.90
2019-05-25T22:11:41.530Z,12.83
2019-05-25T22:14:14.245Z,12.75
2019-05-25T22:16:46.649Z,12.74
2019-05-25T22:19:19.237Z,12.65
2019-05-25T22:21:51.768Z,12.61
2019-05-25T22:24:25.105Z,12.55
2019-05-25T22:26:57.565Z,12.51
2019-05-25T22:29:30.457Z,12.49
2019-05-25T22:32:03.107Z,12.49
2019-05-25T22:34:36.216Z,12.46
2019-05-25T22:37:10.115Z,12.43
2019-05-25T22:39:42.656Z,12.43
2019-05-25T22:42:15.488Z,12.46
2019-05-25T22:44:48.504Z,12.47
2019-05-25T22:47:21.626Z,12.44
2019-05-25T22:49:54.525Z,12.35
2019-05-25T22:52:27.422Z,12.31
2019-05-25T22:55:00.272Z,12.23
2019-05-25T22:57:33.081Z,12.17
2019-05-25T23:00:07.038Z,12.14
2019-05-25T23:02:41.175Z,12.09
2019-05-25T23:05:14.405Z,12.03
2019-05-25T23:07:47.185Z,11.96
2019-05-25T23:10:20.119Z,11.96
2019-05-25T23:12:52.744Z,11.91
2019-05-25T23:15:25.581Z,11.86
2019-05-25T23:17:59.455Z,11.83
2019-05-25T23:20:32.406Z,11.80
2019-05-25T23:23:05.073Z,11.76
2019-05-25T23:25:37.865Z,11.73
2019-05-25T23:28:10.615Z,11.70
2019-05-25T23:30:43.555Z,11.65
2019-05-25T23:33:17.196Z,11.70
2019-05-25T23:35:50.216Z,11.78
2019-05-25T23:38:22.655Z,11.84
2019-05-25T23:40:55.470Z,11.90
2019-05-25T23:43:28.225Z,11.95
2019-05-25T23:46:01.825Z,11.95
2019-05-25T23:48:34.336Z,11.93
2019-05-25T23:51:07.135Z,11.83
2019-05-25T23:53:39.768Z,11.73
2019-05-25T23:56:12.505Z,11.66
2019-05-25T23:58:45.146Z,11.68
